createdAt,value
2017-09-11T00:00:22.486Z,0
2017-09-11T00:01:22.154Z,0
2017-09-11T00:02:23.112Z,0
2017-09-11T00:03:22.769Z,0
2017-09-11T00:04:22.759Z,0
2017-09-11T00:05:22.426Z,0
2017-09-11T00:06:22.720Z,0
2017-09-11T00:07:22.395Z,0
2017-09-11T00:08:22.695Z,0
2017-09-11T00:09:23.007Z,0
2017-09-11T00:10:22.997Z,0
2017-09-11T00:11:22.332Z,0
2017-09-11T00:12:22.357Z,0
2017-09-11T00:13:22.633Z,0
2017-09-11T00:14:22.617Z,0
2017-09-11T00:15:21.974Z,0
2017-09-11T00:16:22.269Z,0
2017-09-11T00:17:22.577Z,0
2017-09-11T00:18:22.562Z,0
2017-09-11T00:19:22.552Z,0
2017-09-11T00:20:22.237Z,0
2017-09-11T00:21:21.886Z,0
2017-09-11T00:22:22.187Z,0
2017-09-11T00:23:22.373Z,0
2017-09-11T00:24:22.802Z,0
2017-09-11T00:25:22.486Z,0
2017-09-11T00:26:22.129Z,0
2017-09-11T00:27:22.759Z,0
2017-09-11T00:28:22.464Z,0
2017-09-11T00:29:22.419Z,0
2017-09-11T00:30:22.080Z,0
2017-09-11T00:31:22.392Z,0
2017-09-11T00:32:22.056Z,0
2017-09-11T00:33:22.041Z,0
2017-09-11T00:34:22.033Z,0
2017-09-11T00:35:22.013Z,0
2017-09-11T00:36:22.332Z,0
2017-09-11T00:37:21.980Z,0
2017-09-11T00:38:22.611Z,0
2017-09-11T00:39:21.957Z,0
2017-09-11T00:40:21.639Z,0
2017-09-11T00:41:21.940Z,0
2017-09-11T00:42:22.239Z,0
2017-09-11T00:43:22.230Z,0
2017-09-11T00:44:22.206Z,0
2017-09-11T00:45:21.881Z,0
2017-09-11T00:46:21.557Z,0
2017-09-11T00:47:22.178Z,0
2017-09-11T00:48:21.512Z,0
2017-09-11T00:49:22.147Z,0
2017-09-11T00:50:22.135Z,0
2017-09-11T00:51:21.485Z,0
2017-09-11T00:52:22.420Z,0
2017-09-11T00:53:21.775Z,0
2017-09-11T00:54:22.086Z,0
2017-09-11T00:55:22.391Z,0
2017-09-11T00:56:21.731Z,0
2017-09-11T00:57:22.407Z,0
2017-09-11T00:58:21.701Z,0
2017-09-11T00:59:22.020Z,0
2017-09-11T01:00:22.007Z,0
2017-09-11T01:01:22.308Z,0
2017-09-11T01:02:21.647Z,0
2017-09-11T01:03:21.964Z,0
2017-09-11T01:04:21.955Z,0
2017-09-11T01:05:22.250Z,0
2017-09-11T01:06:22.243Z,0
2017-09-11T01:07:21.919Z,0
2017-09-11T01:08:21.900Z,0
2017-09-11T01:09:21.875Z,0
2017-09-11T01:10:21.228Z,0
2017-09-11T01:11:21.530Z,0
2017-09-11T01:12:21.836Z,0
2017-09-11T01:13:21.506Z,0
2017-09-11T01:14:22.139Z,0
2017-09-11T01:15:21.799Z,0
2017-09-11T01:16:21.460Z,0
2017-09-11T01:17:21.787Z,0
2017-09-11T01:18:21.758Z,0
2017-09-11T01:19:21.104Z,0
2017-09-11T01:20:21.741Z,0
2017-09-11T01:21:21.744Z,0
2017-09-11T01:22:21.715Z,0
2017-09-11T01:23:21.410Z,0
2017-09-11T01:24:21.676Z,0
2017-09-11T01:25:21.670Z,0
2017-09-11T01:26:21.331Z,0
2017-09-11T01:27:21.651Z,0
2017-09-11T01:28:21.634Z,0
2017-09-11T01:29:21.615Z,0
2017-09-11T01:30:21.607Z,0
2017-09-11T01:31:21.276Z,0
2017-09-11T01:32:21.576Z,0
2017-09-11T01:33:21.240Z,0
2017-09-11T01:34:21.552Z,0
2017-09-11T01:35:21.875Z,0
2017-09-11T01:36:21.854Z,0
2017-09-11T01:37:21.510Z,0
2017-09-11T01:38:20.886Z,0
2017-09-11T01:39:21.163Z,0
2017-09-11T01:40:21.151Z,0
2017-09-11T01:41:21.453Z,0
2017-09-11T01:42:21.440Z,0
2017-09-11T01:43:21.110Z,0
2017-09-11T01:44:21.085Z,0
2017-09-11T01:45:21.397Z,0
2017-09-11T01:46:21.380Z,0
2017-09-11T01:47:21.697Z,0
2017-09-11T01:48:21.367Z,0
2017-09-11T01:49:21.022Z,0
2017-09-11T01:50:20.690Z,0
2017-09-11T01:51:20.683Z,0
2017-09-11T01:52:21.301Z,0
2017-09-11T01:53:20.973Z,0
2017-09-11T01:54:21.606Z,0
2017-09-11T01:55:20.622Z,0
2017-09-11T01:56:21.249Z,0
2017-09-11T01:57:20.906Z,0
2017-09-11T01:58:21.549Z,0
2017-09-11T01:59:20.887Z,0
2017-09-11T02:00:21.195Z,0
2017-09-11T02:01:20.872Z,0
2017-09-11T02:02:21.163Z,0
2017-09-11T02:03:20.831Z,0
2017-09-11T02:04:20.828Z,0
2017-09-11T02:05:21.135Z,0
2017-09-11T02:06:20.796Z,0
2017-09-11T02:07:21.103Z,0
2017-09-11T02:08:21.089Z,0
2017-09-11T02:09:21.072Z,0
2017-09-11T02:10:21.059Z,0
2017-09-11T02:11:21.368Z,0
2017-09-11T02:12:20.721Z,0
2017-09-11T02:13:21.016Z,0
2017-09-11T02:14:21.007Z,0
2017-09-11T02:15:20.673Z,0
2017-09-11T02:16:20.661Z,0
2017-09-11T02:17:20.971Z,0
2017-09-11T02:18:20.636Z,0
2017-09-11T02:19:20.650Z,0
2017-09-11T02:20:20.920Z,0
2017-09-11T02:21:20.919Z,0
2017-09-11T02:22:20.899Z,0
2017-09-11T02:23:20.768Z,0
2017-09-11T02:24:20.558Z,0
2017-09-11T02:25:20.868Z,0
2017-09-11T02:26:20.522Z,0
2017-09-11T02:27:20.835Z,0
2017-09-11T02:28:20.821Z,0
2017-09-11T02:29:20.839Z,0
2017-09-11T02:30:20.796Z,0
2017-09-11T02:31:20.786Z,0
2017-09-11T02:32:20.960Z,0
2017-09-11T02:33:21.065Z,0
2017-09-11T02:34:20.098Z,0
2017-09-11T02:35:20.740Z,0
2017-09-11T02:36:20.379Z,0
2017-09-11T02:37:20.700Z,0
2017-09-11T02:38:20.712Z,0
2017-09-11T02:39:20.662Z,0
2017-09-11T02:40:20.657Z,0
2017-09-11T02:41:20.639Z,0
2017-09-11T02:42:20.628Z,0
2017-09-11T02:43:20.932Z,0
2017-09-11T02:44:20.931Z,0
2017-09-11T02:45:20.586Z,0
2017-09-11T02:46:19.931Z,0
2017-09-11T02:47:20.271Z,0
2017-09-11T02:48:19.905Z,0
2017-09-11T02:49:20.532Z,0
2017-09-11T02:50:20.516Z,0
2017-09-11T02:51:20.508Z,0
2017-09-11T02:52:20.496Z,0
2017-09-11T02:53:20.149Z,0
2017-09-11T02:54:20.464Z,0
2017-09-11T02:55:19.799Z,0
2017-09-11T02:56:19.794Z,0
2017-09-11T02:57:20.438Z,0
2017-09-11T02:58:20.422Z,0
2017-09-11T02:59:20.727Z,0
2017-09-11T03:00:20.066Z,0
2017-09-11T03:01:20.372Z,0
2017-09-11T03:02:20.373Z,0
2017-09-11T03:03:20.342Z,0
2017-09-11T03:04:20.010Z,0
2017-09-11T03:05:19.998Z,0
2017-09-11T03:06:20.307Z,0
2017-09-11T03:07:20.288Z,0
2017-09-11T03:08:20.648Z,0
2017-09-11T03:09:20.597Z,0
2017-09-11T03:10:19.939Z,0
2017-09-11T03:11:20.261Z,0
2017-09-11T03:12:20.223Z,0
2017-09-11T03:13:20.215Z,0
2017-09-11T03:14:19.873Z,0
2017-09-11T03:15:19.856Z,0
2017-09-11T03:16:19.843Z,0
2017-09-11T03:17:20.157Z,0
2017-09-11T03:18:19.487Z,0
2017-09-11T03:19:19.797Z,0
2017-09-11T03:20:19.784Z,0
2017-09-11T03:21:19.785Z,0
2017-09-11T03:22:19.759Z,0
2017-09-11T03:23:19.748Z,0
2017-09-11T03:24:20.371Z,0
2017-09-11T03:25:20.357Z,0
2017-09-11T03:26:20.344Z,0
2017-09-11T03:27:20.020Z,0
2017-09-11T03:28:19.994Z,0
2017-09-11T03:29:19.662Z,0
2017-09-11T03:30:19.984Z,0
2017-09-11T03:31:19.644Z,0
2017-09-11T03:32:20.269Z,0
2017-09-11T03:33:19.605Z,0
2017-09-11T03:34:19.928Z,0
2017-09-11T03:35:19.581Z,0
2017-09-11T03:36:19.567Z,0
2017-09-11T03:37:20.198Z,0
2017-09-11T03:38:19.545Z,0
2017-09-11T03:39:19.216Z,0
2017-09-11T03:40:19.517Z,0
2017-09-11T03:41:19.820Z,0
2017-09-11T03:42:19.809Z,0
2017-09-11T03:43:19.161Z,0
2017-09-11T03:44:20.100Z,0
2017-09-11T03:45:19.466Z,0
2017-09-11T03:46:20.105Z,0
2017-09-11T03:47:20.057Z,0
2017-09-11T03:48:19.416Z,0
2017-09-11T03:49:19.718Z,0
2017-09-11T03:50:19.463Z,0
2017-09-11T03:51:19.053Z,0
2017-09-11T03:52:19.386Z,0
2017-09-11T03:53:19.344Z,0
2017-09-11T03:54:19.645Z,0
2017-09-11T03:55:19.329Z,0
2017-09-11T03:56:19.302Z,0
2017-09-11T03:57:18.960Z,0
2017-09-11T03:58:19.266Z,0
2017-09-11T03:59:19.582Z,0
2017-09-11T04:00:19.242Z,0
2017-09-11T04:01:19.562Z,0
2017-09-11T04:02:19.540Z,0
2017-09-11T04:03:19.196Z,0
2017-09-11T04:04:19.826Z,0
2017-09-11T04:05:19.817Z,0
2017-09-11T04:06:19.524Z,0
2017-09-11T04:07:19.145Z,0
2017-09-11T04:08:19.441Z,0
2017-09-11T04:09:19.122Z,0
2017-09-11T04:10:19.431Z,0
2017-09-11T04:11:19.078Z,0
2017-09-11T04:12:19.740Z,0
2017-09-11T04:13:19.386Z,0
2017-09-11T04:14:19.362Z,0
2017-09-11T04:15:19.028Z,0
2017-09-11T04:16:19.022Z,0
2017-09-11T04:17:18.676Z,0
2017-09-11T04:18:18.993Z,0
2017-09-11T04:19:19.295Z,0
2017-09-11T04:20:19.271Z,0
2017-09-11T04:21:18.933Z,0
2017-09-11T04:22:19.243Z,0
2017-09-11T04:23:19.426Z,0
2017-09-11T04:24:18.898Z,0
2017-09-11T04:25:18.879Z,0
2017-09-11T04:26:18.859Z,0
2017-09-11T04:27:19.182Z,0
2017-09-11T04:28:19.197Z,0
2017-09-11T04:29:19.152Z,0
2017-09-11T04:30:19.445Z,0
2017-09-11T04:31:19.115Z,0
2017-09-11T04:32:19.109Z,0
2017-09-11T04:33:19.403Z,0
2017-09-11T04:34:18.760Z,0
2017-09-11T04:35:19.055Z,4
2017-09-11T04:36:19.040Z,4
2017-09-11T04:37:19.060Z,4
2017-09-11T04:38:18.685Z,4
2017-09-11T04:39:19.319Z,8
2017-09-11T04:40:19.315Z,4
2017-09-11T04:41:19.298Z,4
2017-09-11T04:42:18.635Z,4
2017-09-11T04:43:19.261Z,8
2017-09-11T04:44:18.920Z,8
2017-09-11T04:45:19.287Z,12
2017-09-11T04:46:19.244Z,12
2017-09-11T04:47:18.586Z,20
2017-09-11T04:48:18.865Z,20
2017-09-11T04:49:19.168Z,28
2017-09-11T04:50:18.515Z,28
2017-09-11T04:51:19.147Z,32
2017-09-11T04:52:18.168Z,40
2017-09-11T04:53:18.471Z,44
2017-09-11T04:54:18.454Z,48
2017-09-11T04:55:18.772Z,52
2017-09-11T04:56:19.064Z,52
2017-09-11T04:57:18.407Z,56
2017-09-11T04:58:19.049Z,60
2017-09-11T04:59:19.029Z,60
2017-09-11T05:00:18.369Z,68
2017-09-11T05:01:18.041Z,76
2017-09-11T05:02:19.003Z,88
2017-09-11T05:03:18.349Z,108
2017-09-11T05:04:18.320Z,108
2017-09-11T05:05:18.626Z,116
2017-09-11T05:06:18.610Z,128
2017-09-11T05:07:18.275Z,136
2017-09-11T05:08:18.580Z,156
2017-09-11T05:09:17.919Z,176
2017-09-11T05:10:18.220Z,192
2017-09-11T05:11:18.211Z,204
2017-09-11T05:12:18.190Z,196
2017-09-11T05:13:18.177Z,176
2017-09-11T05:14:18.495Z,120
2017-09-11T05:15:18.494Z,104
2017-09-11T05:16:18.776Z,84
2017-09-11T05:17:17.801Z,96
2017-09-11T05:18:18.431Z,136
2017-09-11T05:19:18.405Z,140
2017-09-11T05:20:18.402Z,132
2017-09-11T05:21:18.704Z,132
2017-09-11T05:22:18.371Z,136
2017-09-11T05:23:18.082Z,148
2017-09-11T05:24:18.341Z,172
2017-09-11T05:25:18.653Z,208
2017-09-11T05:26:17.991Z,200
2017-09-11T05:27:18.299Z,152
2017-09-11T05:28:18.275Z,128
2017-09-11T05:29:17.954Z,188
2017-09-11T05:30:18.262Z,256
2017-09-11T05:31:18.239Z,352
2017-09-11T05:32:17.902Z,448
2017-09-11T05:33:17.925Z,500
2017-09-11T05:34:18.189Z,572
2017-09-11T05:35:17.877Z,616
2017-09-11T05:36:18.522Z,656
2017-09-11T05:37:17.828Z,680
2017-09-11T05:38:17.812Z,692
2017-09-11T05:39:18.116Z,700
2017-09-11T05:40:17.788Z,684
2017-09-11T05:41:18.409Z,692
2017-09-11T05:42:18.393Z,716
2017-09-11T05:43:18.104Z,744
2017-09-11T05:44:17.728Z,748
2017-09-11T05:45:18.034Z,748
2017-09-11T05:46:18.025Z,760
2017-09-11T05:47:18.018Z,800
2017-09-11T05:48:17.671Z,844
2017-09-11T05:49:17.651Z,876
2017-09-11T05:50:17.370Z,952
2017-09-11T05:51:17.302Z,1040
2017-09-11T05:52:18.250Z,1104
2017-09-11T05:53:18.241Z,1104
2017-09-11T05:54:17.906Z,1080
2017-09-11T05:55:17.567Z,1116
2017-09-11T05:56:17.872Z,1144
2017-09-11T05:57:17.534Z,1096
2017-09-11T05:58:17.520Z,1028
2017-09-11T05:59:17.832Z,952
2017-09-11T06:00:17.822Z,908
2017-09-11T06:01:17.805Z,908
2017-09-11T06:02:18.141Z,956
2017-09-11T06:03:18.099Z,1188
2017-09-11T06:04:17.145Z,1376
2017-09-11T06:05:17.423Z,1368
2017-09-11T06:06:17.411Z,1128
2017-09-11T06:07:17.396Z,932
2017-09-11T06:08:18.033Z,1004
2017-09-11T06:09:17.364Z,1032
2017-09-11T06:10:18.005Z,1024
2017-09-11T06:11:17.342Z,984
2017-09-11T06:12:17.004Z,976
2017-09-11T06:13:17.953Z,1032
2017-09-11T06:14:17.633Z,1124
2017-09-11T06:15:17.289Z,1220
2017-09-11T06:16:16.951Z,1416
2017-09-11T06:17:16.931Z,1692
2017-09-11T06:18:17.894Z,2056
2017-09-11T06:19:17.238Z,2208
2017-09-11T06:20:17.545Z,2312
2017-09-11T06:21:16.879Z,2532
2017-09-11T06:22:17.509Z,2668
2017-09-11T06:23:18.453Z,2820
2017-09-11T06:24:17.164Z,2760
2017-09-11T06:25:17.791Z,2788
2017-09-11T06:26:17.130Z,2976
2017-09-11T06:27:16.792Z,3072
2017-09-11T06:28:17.437Z,3280
2017-09-11T06:29:17.415Z,3520
2017-09-11T06:30:17.388Z,3844
2017-09-11T06:31:17.075Z,4060
2017-09-11T06:32:17.372Z,3868
2017-09-11T06:33:17.030Z,3544
2017-09-11T06:34:17.335Z,3340
2017-09-11T06:35:17.650Z,3564
2017-09-11T06:36:16.987Z,3580
2017-09-11T06:37:17.299Z,3440
2017-09-11T06:38:17.603Z,3344
2017-09-11T06:39:17.598Z,3656
2017-09-11T06:40:17.253Z,4048
2017-09-11T06:41:17.233Z,4184
2017-09-11T06:42:17.225Z,4172
2017-09-11T06:43:17.210Z,4116
2017-09-11T06:44:16.876Z,3724
2017-09-11T06:45:17.509Z,3628
2017-09-11T06:46:16.855Z,3624
2017-09-11T06:47:17.501Z,3444
2017-09-11T06:48:17.482Z,3532
2017-09-11T06:49:17.132Z,3584
2017-09-11T06:50:17.126Z,3620
2017-09-11T06:51:17.103Z,3712
2017-09-11T06:52:16.774Z,3852
2017-09-11T06:53:17.080Z,3716
2017-09-11T06:54:16.736Z,3668
2017-09-11T06:55:16.740Z,3628
2017-09-11T06:56:17.047Z,3636
2017-09-11T06:57:16.696Z,3800
2017-09-11T06:58:17.007Z,3588
2017-09-11T06:59:16.676Z,3300
2017-09-11T07:00:16.663Z,3064
2017-09-11T07:01:17.291Z,2888
2017-09-11T07:02:16.965Z,2856
2017-09-11T07:03:16.943Z,2976
2017-09-11T07:04:16.961Z,3000
2017-09-11T07:05:16.915Z,2888
2017-09-11T07:06:16.577Z,2804
2017-09-11T07:07:16.562Z,3156
2017-09-11T07:08:16.876Z,3472
2017-09-11T07:09:16.215Z,3588
2017-09-11T07:10:16.530Z,4056
2017-09-11T07:11:17.172Z,3988
2017-09-11T07:12:16.500Z,3860
2017-09-11T07:13:17.120Z,3292
2017-09-11T07:14:17.114Z,3320
2017-09-11T07:15:16.458Z,3428
2017-09-11T07:16:16.121Z,3560
2017-09-11T07:17:16.429Z,3012
2017-09-11T07:18:16.741Z,2564
2017-09-11T07:19:16.725Z,2940
2017-09-11T07:20:16.714Z,3156
2017-09-11T07:21:16.706Z,3052
2017-09-11T07:22:16.357Z,3728
2017-09-11T07:23:16.345Z,4644
2017-09-11T07:24:16.981Z,4892
2017-09-11T07:25:16.973Z,4272
2017-09-11T07:26:16.318Z,4604
2017-09-11T07:27:16.613Z,4636
2017-09-11T07:28:16.610Z,5352
2017-09-11T07:29:16.587Z,6560
2017-09-11T07:30:16.576Z,6848
2017-09-11T07:31:16.239Z,6680
2017-09-11T07:32:16.224Z,5948
2017-09-11T07:33:16.869Z,5648
2017-09-11T07:34:16.519Z,5788
2017-09-11T07:35:16.510Z,5728
2017-09-11T07:36:16.495Z,5136
2017-09-11T07:37:16.481Z,5512
2017-09-11T07:38:16.465Z,6292
2017-09-11T07:39:16.450Z,6620
2017-09-11T07:40:16.117Z,6668
2017-09-11T07:41:16.425Z,6704
2017-09-11T07:42:16.094Z,6428
2017-09-11T07:43:16.401Z,5644
2017-09-11T07:44:16.074Z,6096
2017-09-11T07:45:16.689Z,6584
2017-09-11T07:46:16.364Z,6256
2017-09-11T07:47:16.683Z,5700
2017-09-11T07:48:16.021Z,5576
2017-09-11T07:49:16.013Z,5416
2017-09-11T07:50:16.316Z,4992
2017-09-11T07:51:16.300Z,5000
2017-09-11T07:52:16.289Z,3688
2017-09-11T07:53:15.951Z,3624
2017-09-11T07:54:16.264Z,3732
2017-09-11T07:55:16.245Z,3580
2017-09-11T07:56:16.266Z,5068
2017-09-11T07:57:15.912Z,3888
2017-09-11T07:58:16.205Z,5364
2017-09-11T07:59:16.525Z,5556
2017-09-11T08:00:16.183Z,4684
2017-09-11T08:01:16.173Z,5872
2017-09-11T08:02:15.845Z,5780
2017-09-11T08:03:16.467Z,5404
2017-09-11T08:04:16.127Z,5696
2017-09-11T08:05:16.125Z,4364
2017-09-11T08:06:16.436Z,3964
2017-09-11T08:07:15.446Z,4684
2017-09-11T08:08:15.763Z,7236
2017-09-11T08:09:16.067Z,7620
2017-09-11T08:10:16.373Z,7172
2017-09-11T08:11:15.734Z,11164
2017-09-11T08:12:16.026Z,6308
2017-09-11T08:13:16.009Z,6644
2017-09-11T08:14:16.001Z,6088
2017-09-11T08:15:16.317Z,6032
2017-09-11T08:16:15.655Z,6608
2017-09-11T08:17:15.633Z,5232
2017-09-11T08:18:16.269Z,5300
2017-09-11T08:19:15.940Z,5592
2017-09-11T08:20:15.598Z,4476
2017-09-11T08:21:15.271Z,5968
2017-09-11T08:22:15.577Z,5596
2017-09-11T08:23:15.888Z,8236
2017-09-11T08:24:16.195Z,6132
2017-09-11T08:25:15.870Z,4640
2017-09-11T08:26:15.863Z,5076
2017-09-11T08:27:15.840Z,8740
2017-09-11T08:28:15.510Z,7208
2017-09-11T08:29:15.831Z,8300
2017-09-11T08:30:16.124Z,5880
2017-09-11T08:31:15.467Z,6660
2017-09-11T08:32:15.457Z,7264
2017-09-11T08:33:15.801Z,5452
2017-09-11T08:34:15.427Z,4124
2017-09-11T08:35:15.420Z,3760
2017-09-11T08:36:15.406Z,5296
2017-09-11T08:37:15.076Z,7220
2017-09-11T08:38:15.058Z,6332
2017-09-11T08:39:15.698Z,7260
2017-09-11T08:40:15.355Z,6532
2017-09-11T08:41:15.354Z,4976
2017-09-11T08:42:15.654Z,5772
2017-09-11T08:43:15.985Z,6376
2017-09-11T08:44:15.660Z,6104
2017-09-11T08:45:15.301Z,7852
2017-09-11T08:46:15.616Z,8180
2017-09-11T08:47:15.595Z,7888
2017-09-11T08:48:15.577Z,8368
2017-09-11T08:49:15.570Z,8372
2017-09-11T08:50:15.885Z,8824
2017-09-11T08:51:14.914Z,10460
2017-09-11T08:52:15.219Z,8344
2017-09-11T08:53:15.526Z,8340
2017-09-11T08:54:15.517Z,7624
2017-09-11T08:55:15.499Z,4964
2017-09-11T08:56:15.169Z,5532
2017-09-11T08:57:14.831Z,5676
2017-09-11T08:58:15.786Z,4332
2017-09-11T08:59:15.457Z,4556
2017-09-11T09:00:15.442Z,4900
2017-09-11T09:01:15.418Z,4956
2017-09-11T09:02:15.736Z,5100
2017-09-11T09:03:15.409Z,5104
2017-09-11T09:04:15.403Z,5544
2017-09-11T09:05:15.054Z,6900
2017-09-11T09:06:15.044Z,8172
2017-09-11T09:07:15.033Z,7596
2017-09-11T09:08:15.022Z,6176
2017-09-11T09:09:15.010Z,5540
2017-09-11T09:10:15.332Z,7552
2017-09-11T09:11:14.653Z,7548
2017-09-11T09:12:15.615Z,6432
2017-09-11T09:13:15.288Z,8640
2017-09-11T09:14:14.630Z,9112
2017-09-11T09:15:14.934Z,9644
2017-09-11T09:16:14.932Z,11312
2017-09-11T09:17:15.233Z,9636
2017-09-11T09:18:15.216Z,8716
2017-09-11T09:19:15.217Z,6912
2017-09-11T09:20:15.534Z,8536
2017-09-11T09:21:15.193Z,9524
2017-09-11T09:22:15.181Z,10452
2017-09-11T09:23:15.491Z,11680
2017-09-11T09:24:15.476Z,10032
2017-09-11T09:25:14.501Z,6796
2017-09-11T09:26:15.138Z,8288
2017-09-11T09:27:14.802Z,12636
2017-09-11T09:28:14.778Z,14496
2017-09-11T09:29:15.097Z,11860
2017-09-11T09:30:14.453Z,13128
2017-09-11T09:31:15.076Z,11908
2017-09-11T09:32:15.384Z,14016
2017-09-11T09:33:15.055Z,10812
2017-09-11T09:34:15.044Z,10388
2017-09-11T09:35:14.707Z,8140
2017-09-11T09:36:15.021Z,6204
2017-09-11T09:37:14.693Z,4100
2017-09-11T09:38:14.682Z,3376
2017-09-11T09:39:14.988Z,3180
2017-09-11T09:40:14.651Z,3600
2017-09-11T09:41:15.282Z,3944
2017-09-11T09:42:14.957Z,3584
2017-09-11T09:43:14.619Z,3716
2017-09-11T09:44:14.606Z,4200
2017-09-11T09:45:14.927Z,4220
2017-09-11T09:46:15.232Z,5176
2017-09-11T09:47:14.576Z,7588
2017-09-11T09:48:14.887Z,8168
2017-09-11T09:49:14.229Z,9168
2017-09-11T09:50:14.539Z,14344
2017-09-11T09:51:14.266Z,15908
2017-09-11T09:52:14.834Z,15136
2017-09-11T09:53:14.828Z,15700
2017-09-11T09:54:14.812Z,15348
2017-09-11T09:55:14.805Z,13488
2017-09-11T09:56:14.801Z,13012
2017-09-11T09:57:14.783Z,11160
2017-09-11T09:58:14.125Z,11680
2017-09-11T09:59:14.759Z,12188
2017-09-11T10:00:15.093Z,9392
2017-09-11T10:01:14.408Z,6852
2017-09-11T10:02:14.727Z,6828
2017-09-11T10:03:14.388Z,9168
2017-09-11T10:04:14.380Z,10888
2017-09-11T10:05:14.702Z,10592
2017-09-11T10:06:14.370Z,9940
2017-09-11T10:07:14.031Z,6888
2017-09-11T10:08:14.340Z,4176
2017-09-11T10:09:14.320Z,3792
2017-09-11T10:10:14.635Z,4160
2017-09-11T10:11:14.961Z,5984
2017-09-11T10:12:14.619Z,8344
2017-09-11T10:13:14.603Z,10344
2017-09-11T10:14:14.271Z,10924
2017-09-11T10:15:14.900Z,10600
2017-09-11T10:16:14.270Z,10816
2017-09-11T10:17:14.560Z,10724
2017-09-11T10:18:14.218Z,8276
2017-09-11T10:19:14.530Z,6148
2017-09-11T10:20:14.524Z,5208
2017-09-11T10:21:13.865Z,4164
2017-09-11T10:22:14.496Z,3760
2017-09-11T10:23:14.162Z,4276
2017-09-11T10:24:14.386Z,4664
2017-09-11T10:25:14.462Z,4716
2017-09-11T10:26:14.767Z,4812
2017-09-11T10:27:14.116Z,5584
2017-09-11T10:28:14.748Z,7228
2017-09-11T10:29:14.730Z,9216
2017-09-11T10:30:14.407Z,11148
2017-09-11T10:31:14.388Z,12652
2017-09-11T10:32:14.056Z,12348
2017-09-11T10:33:14.379Z,11748
2017-09-11T10:34:14.042Z,16444
2017-09-11T10:35:14.668Z,12100
2017-09-11T10:36:14.342Z,8860
2017-09-11T10:37:14.063Z,8304
2017-09-11T10:38:14.000Z,10532
2017-09-11T10:39:14.300Z,14248
2017-09-11T10:40:14.303Z,12700
2017-09-11T10:41:14.284Z,12728
2017-09-11T10:42:14.269Z,10624
2017-09-11T10:43:14.583Z,9072
2017-09-11T10:44:13.927Z,5624
2017-09-11T10:45:13.912Z,3980
2017-09-11T10:46:14.551Z,3100
2017-09-11T10:47:14.532Z,2176
2017-09-11T10:48:13.878Z,2048
2017-09-11T10:49:14.528Z,2332
2017-09-11T10:50:13.533Z,2772
2017-09-11T10:51:14.172Z,3036
2017-09-11T10:52:14.158Z,3312
2017-09-11T10:53:14.479Z,3608
2017-09-11T10:54:14.136Z,4260
2017-09-11T10:55:14.134Z,3928
2017-09-11T10:56:13.798Z,3332
2017-09-11T10:57:14.111Z,2724
2017-09-11T10:58:14.425Z,2832
2017-09-11T10:59:13.760Z,3240
2017-09-11T11:00:14.394Z,2916
2017-09-11T11:01:14.078Z,2480
2017-09-11T11:02:14.058Z,2512
2017-09-11T11:03:14.030Z,2380
2017-09-11T11:04:13.705Z,2564
2017-09-11T11:05:13.692Z,3220
2017-09-11T11:06:14.330Z,3892
2017-09-11T11:07:13.659Z,6004
2017-09-11T11:08:13.652Z,8728
2017-09-11T11:09:13.971Z,10612
2017-09-11T11:10:13.947Z,10816
2017-09-11T11:11:13.648Z,8428
2017-09-11T11:12:13.918Z,11752
2017-09-11T11:13:14.240Z,56832
2017-09-11T11:14:13.576Z,73056
2017-09-11T11:15:13.881Z,87808
2017-09-11T11:16:13.866Z,40384
2017-09-11T11:17:14.204Z,9540
2017-09-11T11:18:13.845Z,30688
2017-09-11T11:19:14.150Z,47424
2017-09-11T11:20:13.816Z,81696
2017-09-11T11:21:13.489Z,81248
2017-09-11T11:22:13.481Z,25440
2017-09-11T11:23:13.486Z,48416
2017-09-11T11:24:13.512Z,10336
2017-09-11T11:25:13.793Z,13504
2017-09-11T11:26:13.442Z,75744
2017-09-11T11:27:13.111Z,84512
2017-09-11T11:28:13.749Z,68832
2017-09-11T11:29:13.736Z,65152
2017-09-11T11:30:13.089Z,91104
2017-09-11T11:31:14.065Z,91552
2017-09-11T11:32:13.418Z,103424
2017-09-11T11:33:13.397Z,86144
2017-09-11T11:34:13.390Z,86432
2017-09-11T11:35:13.702Z,75360
2017-09-11T11:36:13.705Z,17056
2017-09-11T11:37:13.706Z,83808
2017-09-11T11:38:13.999Z,72000
2017-09-11T11:39:13.675Z,39584
2017-09-11T11:40:13.675Z,17728
2017-09-11T11:41:13.678Z,14488
2017-09-11T11:42:13.661Z,71136
2017-09-11T11:43:13.670Z,24992
2017-09-11T11:44:13.653Z,22976
2017-09-11T11:45:13.045Z,22592
2017-09-11T11:46:13.643Z,60576
2017-09-11T11:47:13.644Z,94272
2017-09-11T11:48:13.637Z,30528
2017-09-11T11:49:13.631Z,28096
2017-09-11T11:50:13.940Z,57440
2017-09-11T11:51:13.649Z,8644
2017-09-11T11:52:13.292Z,6700
2017-09-11T11:53:12.964Z,7796
2017-09-11T11:54:13.610Z,60832
2017-09-11T11:55:13.599Z,10304
2017-09-11T11:56:13.590Z,9152
2017-09-11T11:57:13.592Z,10220
2017-09-11T11:58:13.265Z,12212
2017-09-11T11:59:13.310Z,23168
2017-09-11T12:00:13.252Z,63168
2017-09-11T12:01:13.565Z,6596
2017-09-11T12:02:13.553Z,5856
2017-09-11T12:03:13.232Z,4004
2017-09-11T12:04:13.871Z,3952
2017-09-11T12:05:13.536Z,6452
2017-09-11T12:06:12.884Z,15476
2017-09-11T12:07:13.841Z,15744
2017-09-11T12:08:12.872Z,20288
2017-09-11T12:09:13.496Z,97792
2017-09-11T12:10:13.497Z,78784
2017-09-11T12:11:13.488Z,14320
2017-09-11T12:12:13.159Z,102400
2017-09-11T12:13:13.804Z,29824
2017-09-11T12:14:13.145Z,102912
2017-09-11T12:15:13.144Z,13048
2017-09-11T12:16:13.455Z,102848
2017-09-11T12:17:13.457Z,13520
2017-09-11T12:18:13.434Z,10044
2017-09-11T12:19:13.122Z,13104
2017-09-11T12:20:13.113Z,10640
2017-09-11T12:21:12.774Z,11920
2017-09-11T12:22:13.101Z,12036
2017-09-11T12:23:13.090Z,9756
2017-09-11T12:24:13.614Z,7552
2017-09-11T12:25:13.075Z,6984
2017-09-11T12:26:13.397Z,8296
2017-09-11T12:27:13.062Z,9236
2017-09-11T12:28:13.056Z,6804
2017-09-11T12:29:13.366Z,4084
2017-09-11T12:30:13.043Z,3852
2017-09-11T12:31:13.350Z,4720
2017-09-11T12:32:13.346Z,4684
2017-09-11T12:33:13.009Z,3528
2017-09-11T12:34:13.006Z,3508
2017-09-11T12:35:13.322Z,3512
2017-09-11T12:36:13.634Z,5172
2017-09-11T12:37:13.301Z,7364
2017-09-11T12:38:13.290Z,17440
2017-09-11T12:39:13.598Z,19296
2017-09-11T12:40:13.263Z,13920
2017-09-11T12:41:12.952Z,14272
2017-09-11T12:42:13.581Z,12924
2017-09-11T12:43:13.560Z,9372
2017-09-11T12:44:12.915Z,6256
2017-09-11T12:45:12.905Z,4556
2017-09-11T12:46:13.218Z,5632
2017-09-11T12:47:13.196Z,6328
2017-09-11T12:48:12.873Z,5640
2017-09-11T12:49:12.857Z,3212
2017-09-11T12:50:13.169Z,2828
2017-09-11T12:51:13.162Z,2984
2017-09-11T12:52:13.473Z,4144
2017-09-11T12:53:13.149Z,16624
2017-09-11T12:54:13.125Z,7340
2017-09-11T12:55:13.126Z,6600
2017-09-11T12:56:13.112Z,4788
2017-09-11T12:57:12.788Z,5472
2017-09-11T12:58:12.450Z,53728
2017-09-11T12:59:12.454Z,15484
2017-09-11T13:00:13.076Z,19008
2017-09-11T13:01:12.418Z,86688
2017-09-11T13:02:13.370Z,104768
2017-09-11T13:03:12.723Z,101888
2017-09-11T13:04:13.067Z,99424
2017-09-11T13:05:12.705Z,96320
2017-09-11T13:06:13.336Z,95040
2017-09-11T13:07:12.682Z,94560
2017-09-11T13:08:12.354Z,96000
2017-09-11T13:09:13.322Z,72800
2017-09-11T13:10:12.667Z,97472
2017-09-11T13:11:12.986Z,89696
2017-09-11T13:12:12.330Z,4844
2017-09-11T13:13:12.969Z,4348
2017-09-11T13:14:13.282Z,3472
2017-09-11T13:15:12.950Z,3368
2017-09-11T13:16:12.309Z,2940
2017-09-11T13:17:12.626Z,2836
2017-09-11T13:18:12.617Z,2740
2017-09-11T13:19:13.254Z,3732
2017-09-11T13:20:12.616Z,6548
2017-09-11T13:21:12.924Z,17024
2017-09-11T13:22:12.593Z,17984
2017-09-11T13:23:12.598Z,25472
2017-09-11T13:24:12.583Z,73792
2017-09-11T13:25:12.890Z,74496
2017-09-11T13:26:12.886Z,73408
2017-09-11T13:27:12.564Z,76576
2017-09-11T13:28:12.873Z,78720
2017-09-11T13:29:12.874Z,31584
2017-09-11T13:30:12.897Z,24032
2017-09-11T13:31:12.578Z,59328
2017-09-11T13:32:12.856Z,16960
2017-09-11T13:33:12.207Z,10040
2017-09-11T13:34:12.522Z,8184
2017-09-11T13:35:13.154Z,7868
2017-09-11T13:36:12.833Z,8036
2017-09-11T13:37:13.150Z,7792
2017-09-11T13:38:13.141Z,6728
2017-09-11T13:39:12.813Z,6204
2017-09-11T13:40:13.128Z,6592
2017-09-11T13:41:12.804Z,8164
2017-09-11T13:42:12.475Z,8748
2017-09-11T13:43:12.791Z,7080
2017-09-11T13:44:12.465Z,7868
2017-09-11T13:45:12.458Z,6460